createdAt,value
2023-02-06T00:01:32.025Z,29.52
2023-02-06T00:03:58.725Z,30.25
2023-02-06T00:06:25.336Z,27.45
2023-02-06T00:08:51.972Z,35.40
2023-02-06T00:11:18.934Z,36.58
2023-02-06T00:13:45.731Z,34.42
2023-02-06T00:16:23.870Z,35.80
2023-02-06T00:18:51.288Z,29.33
2023-02-06T00:21:22.157Z,29.60
2023-02-06T00:23:49.386Z,30.27
2023-02-06T00:26:16.132Z,30.38
2023-02-06T00:28:43.421Z,28.20
2023-02-06T00:31:10.673Z,27.52
2023-02-06T00:33:38.850Z,28.95
2023-02-06T00:36:06.213Z,26.27
2023-02-06T00:38:33.031Z,31.55
2023-02-06T00:40:59.792Z,32.63
2023-02-06T00:43:26.385Z,28.92
2023-02-06T00:45:54.104Z,28.65
2023-02-06T00:48:22.410Z,28.60
2023-02-06T00:50:50.181Z,28.30
2023-02-06T00:53:16.940Z,30.63
2023-02-06T00:55:43.898Z,24.92
2023-02-06T00:58:10.998Z,27.95
2023-02-06T01:00:37.778Z,26.60
2023-02-06T01:03:04.489Z,27.85
2023-02-06T01:05:31.170Z,25.52
2023-02-06T01:07:57.799Z,25.65
2023-02-06T01:10:25.174Z,31.17
2023-02-06T01:12:51.881Z,27.55
2023-02-06T01:15:18.577Z,27.30
2023-02-06T01:17:45.239Z,26.25
2023-02-06T01:20:15.158Z,26.70
2023-02-06T01:22:41.953Z,25.08
2023-02-06T01:25:11.714Z,29.85
2023-02-06T01:27:39.138Z,25.83
2023-02-06T01:30:07.511Z,27.08
2023-02-06T01:32:38.481Z,22.73
2023-02-06T01:35:06.978Z,24.98
2023-02-06T01:37:34.523Z,24.95
2023-02-06T01:40:01.203Z,27.75
2023-02-06T01:42:27.870Z,22.33
2023-02-06T01:45:39.849Z,26.25
2023-02-06T01:48:10.450Z,26.98
2023-02-06T01:50:39.898Z,25.55
2023-02-06T01:53:09.411Z,25.15
2023-02-06T01:55:40.965Z,27.80
2023-02-06T01:58:09.749Z,28.95
2023-02-06T02:00:36.508Z,23.30
2023-02-06T02:03:04.154Z,25.02
2023-02-06T02:05:34.446Z,26.38
2023-02-06T02:08:07.042Z,29.65
2023-02-06T02:10:35.154Z,24.23
2023-02-06T02:13:02.054Z,26.00
2023-02-06T02:16:18.486Z,24.13
2023-02-06T02:19:03.607Z,25.42
2023-02-06T02:21:48.979Z,22.63
2023-02-06T02:24:44.639Z,21.48
2023-02-06T02:27:32.908Z,21.02
2023-02-06T02:30:14.707Z,20.73
2023-02-06T02:33:13.141Z,20.40
2023-02-06T02:36:15.448Z,21.23
2023-02-06T02:39:20.168Z,22.48
2023-02-06T02:42:13.959Z,19.55
2023-02-06T02:44:51.596Z,20.02
2023-02-06T02:47:21.884Z,20.63
2023-02-06T02:49:48.713Z,18.70
2023-02-06T02:52:15.489Z,19.23
2023-02-06T02:54:43.047Z,16.50
2023-02-06T02:57:14.420Z,17.58
2023-02-06T02:59:45.715Z,18.23
2023-02-06T03:02:22.634Z,15.25
2023-02-06T03:04:57.806Z,17.52
2023-02-06T03:07:26.288Z,15.88
2023-02-06T03:10:11.632Z,15.38
2023-02-06T03:12:46.090Z,12.27
2023-02-06T03:15:49.660Z,15.43
2023-02-06T03:18:20.310Z,14.77
2023-02-06T03:20:48.061Z,15.10
2023-02-06T03:23:24.303Z,13.93
2023-02-06T03:25:53.417Z,11.82
2023-02-06T03:28:48.153Z,13.13
2023-02-06T03:31:20.194Z,12.35
2023-02-06T03:33:54.838Z,14.00
2023-02-06T03:36:21.698Z,12.00
2023-02-06T03:38:49.919Z,11.95
2023-02-06T03:41:17.981Z,11.80
2023-02-06T03:43:47.453Z,11.35
2023-02-06T03:46:15.926Z,13.30
2023-02-06T03:48:46.074Z,14.07
2023-02-06T03:51:18.457Z,9.88
2023-02-06T03:53:46.624Z,13.32
2023-02-06T03:56:17.622Z,12.43
2023-02-06T03:58:44.668Z,10.25
2023-02-06T04:01:12.189Z,10.85
2023-02-06T04:03:39.088Z,10.43
2023-02-06T04:06:05.765Z,10.88
2023-02-06T04:08:32.416Z,11.10
2023-02-06T04:10:59.072Z,11.80
2023-02-06T04:13:25.700Z,9.95
2023-02-06T04:15:52.421Z,12.27
2023-02-06T04:18:19.036Z,9.85
2023-02-06T04:20:45.639Z,11.00
2023-02-06T04:23:12.339Z,14.18
2023-02-06T04:25:39.194Z,13.27
2023-02-06T04:28:06.018Z,9.75
2023-02-06T04:30:32.796Z,10.30
2023-02-06T04:32:59.416Z,10.80
2023-02-06T04:35:26.053Z,10.65
2023-02-06T04:37:52.806Z,11.52
2023-02-06T04:40:19.457Z,10.65
2023-02-06T04:42:46.336Z,10.40
2023-02-06T04:45:13.353Z,11.13
2023-02-06T04:47:40.017Z,12.32
2023-02-06T04:50:07.095Z,9.77
2023-02-06T04:52:33.755Z,9.77
2023-02-06T04:55:00.435Z,15.85
2023-02-06T04:57:27.174Z,12.80
2023-02-06T04:59:53.884Z,11.45
2023-02-06T05:02:20.719Z,11.35
2023-02-06T05:04:47.388Z,11.30
2023-02-06T05:07:14.253Z,12.60
2023-02-06T05:09:40.909Z,10.65
2023-02-06T05:12:07.855Z,11.90
2023-02-06T05:14:34.701Z,10.95
2023-02-06T05:17:01.336Z,11.18
2023-02-06T05:19:31.025Z,12.70
2023-02-06T05:21:57.671Z,11.98
2023-02-06T05:24:24.549Z,14.65
2023-02-06T05:26:57.967Z,13.43
2023-02-06T05:29:25.777Z,12.38
2023-02-06T05:31:52.638Z,11.10
2023-02-06T05:34:19.419Z,11.30
2023-02-06T05:36:46.030Z,14.93
2023-02-06T05:39:12.699Z,11.93
2023-02-06T05:41:39.336Z,12.48
2023-02-06T05:44:06.049Z,11.45
2023-02-06T05:46:33.068Z,12.10
2023-02-06T05:48:59.755Z,14.07
2023-02-06T05:51:26.599Z,13.30
2023-02-06T05:53:53.220Z,10.40
2023-02-06T05:56:19.893Z,11.43
2023-02-06T05:58:46.605Z,14.43
2023-02-06T06:01:13.400Z,12.82
2023-02-06T06:03:40.345Z,11.55
2023-02-06T06:06:07.389Z,12.98
2023-02-06T06:08:34.166Z,11.95
2023-02-06T06:11:02.829Z,14.93
2023-02-06T06:13:29.594Z,14.23
2023-02-06T06:15:56.270Z,17.20
2023-02-06T06:18:22.946Z,12.38
2023-02-06T06:20:52.387Z,15.48
2023-02-06T06:23:19.073Z,12.95
2023-02-06T06:25:46.992Z,12.35
2023-02-06T06:28:13.857Z,14.60
2023-02-06T06:30:40.600Z,13.65
2023-02-06T06:33:07.281Z,14.73
2023-02-06T06:35:34.368Z,13.13
2023-02-06T06:38:01.077Z,12.90
2023-02-06T06:40:27.900Z,13.23
2023-02-06T06:42:54.503Z,15.00
2023-02-06T06:45:21.202Z,14.32
2023-02-06T06:47:47.887Z,14.52
2023-02-06T06:50:14.703Z,14.65
2023-02-06T06:52:41.367Z,21.15
2023-02-06T06:55:08.180Z,13.75
2023-02-06T06:57:34.811Z,16.58
2023-02-06T07:00:01.471Z,17.13
2023-02-06T07:02:28.770Z,14.25
2023-02-06T07:04:55.858Z,14.25
2023-02-06T07:07:22.808Z,15.45
2023-02-06T07:09:49.605Z,15.40
2023-02-06T07:12:16.403Z,17.33
2023-02-06T07:14:43.172Z,16.30
2023-02-06T07:17:09.782Z,17.95
2023-02-06T07:19:36.500Z,18.83
2023-02-06T07:22:03.224Z,15.70
2023-02-06T07:24:29.892Z,16.95
2023-02-06T07:26:58.629Z,15.43
2023-02-06T07:29:25.263Z,19.08
2023-02-06T07:31:51.983Z,16.15
2023-02-06T07:34:18.604Z,15.93
2023-02-06T07:36:45.224Z,15.48
2023-02-06T07:39:11.971Z,18.15
2023-02-06T07:41:38.742Z,16.90
2023-02-06T07:44:05.360Z,16.77
2023-02-06T07:46:33.048Z,15.55
2023-02-06T07:48:59.681Z,19.95
2023-02-06T07:51:26.653Z,16.55
2023-02-06T07:53:56.415Z,18.20
2023-02-06T07:56:25.869Z,16.65
2023-02-06T07:58:54.100Z,16.08
2023-02-06T08:01:24.272Z,16.52
2023-02-06T08:03:52.109Z,16.77
2023-02-06T08:06:19.581Z,16.25
2023-02-06T08:08:47.228Z,15.63
2023-02-06T08:11:16.874Z,18.45
2023-02-06T08:13:43.934Z,16.27
2023-02-06T08:16:17.017Z,16.50
2023-02-06T08:18:43.853Z,21.83
2023-02-06T08:21:13.097Z,22.52
2023-02-06T08:23:40.057Z,19.75
2023-02-06T08:26:12.851Z,19.88
2023-02-06T08:28:42.275Z,17.98
2023-02-06T08:31:15.346Z,18.15
2023-02-06T08:33:43.554Z,15.93
2023-02-06T08:36:11.074Z,20.45
2023-02-06T08:38:37.858Z,19.00
2023-02-06T08:41:05.633Z,17.25
2023-02-06T08:43:33.154Z,18.40
2023-02-06T08:46:00.040Z,21.60
2023-02-06T08:48:27.051Z,21.60
2023-02-06T08:51:08.184Z,21.67
2023-02-06T08:53:35.316Z,25.88
2023-02-06T08:56:04.497Z,20.58
2023-02-06T08:58:31.488Z,20.00
2023-02-06T09:01:00.152Z,20.27
2023-02-06T09:03:27.314Z,21.75
2023-02-06T09:06:09.367Z,20.65
2023-02-06T09:08:37.071Z,21.50
2023-02-06T09:11:17.263Z,24.17
2023-02-06T09:13:49.222Z,24.55
2023-02-06T09:16:18.325Z,21.92
2023-02-06T09:18:45.813Z,20.40
2023-02-06T09:21:19.011Z,20.55
2023-02-06T09:23:48.227Z,25.58
2023-02-06T09:26:17.555Z,26.98
2023-02-06T09:28:44.450Z,23.70
2023-02-06T09:31:11.572Z,26.52
2023-02-06T09:33:39.452Z,21.27
2023-02-06T09:36:08.511Z,28.05
2023-02-06T09:38:35.882Z,22.30
2023-02-06T09:41:04.156Z,27.25
2023-02-06T09:43:32.136Z,22.58
2023-02-06T09:46:03.909Z,22.30
2023-02-06T09:48:33.789Z,27.85
2023-02-06T09:51:19.379Z,25.08
2023-02-06T09:54:05.608Z,29.70
2023-02-06T09:56:40.205Z,26.13
2023-02-06T09:59:35.993Z,27.70
2023-02-06T10:02:26.334Z,27.02
2023-02-06T10:05:12.591Z,23.10
2023-02-06T10:07:48.149Z,26.65
2023-02-06T10:10:21.400Z,22.42
2023-02-06T10:12:57.565Z,25.30
2023-02-06T10:15:35.986Z,22.75
2023-02-06T10:18:11.842Z,22.30
2023-02-06T10:20:43.367Z,23.35
2023-02-06T10:23:18.870Z,24.70
2023-02-06T10:25:54.318Z,20.52
2023-02-06T10:28:29.050Z,20.92
2023-02-06T10:31:14.211Z,26.35
2023-02-06T10:33:44.025Z,24.58
2023-02-06T10:37:01.772Z,23.90
2023-02-06T10:39:49.535Z,23.60
2023-02-06T10:42:39.616Z,24.83
2023-02-06T10:45:31.130Z,18.23
2023-02-06T10:48:19.433Z,26.10
2023-02-06T10:51:15.192Z,22.05
2023-02-06T10:54:06.474Z,22.70
2023-02-06T10:56:40.603Z,22.35
2023-02-06T10:59:30.723Z,23.65
2023-02-06T11:02:09.440Z,21.30
2023-02-06T11:04:39.660Z,25.13
2023-02-06T11:07:15.211Z,25.08
2023-02-06T11:09:41.903Z,22.48
2023-02-06T11:12:23.040Z,22.13
2023-02-06T11:14:55.196Z,22.35
2023-02-06T11:17:23.415Z,25.85
2023-02-06T11:19:51.848Z,25.48
2023-02-06T11:22:28.240Z,23.67
2023-02-06T11:25:02.665Z,21.92
2023-02-06T11:27:30.199Z,20.15
2023-02-06T11:30:02.294Z,22.17
2023-02-06T11:32:36.233Z,23.63
2023-02-06T11:35:30.848Z,21.20
2023-02-06T11:38:17.938Z,23.98
2023-02-06T11:40:55.655Z,21.52
2023-02-06T11:43:27.559Z,20.48
2023-02-06T11:46:24.506Z,22.90
2023-02-06T11:48:58.647Z,22.77
2023-02-06T11:51:26.453Z,24.40
2023-02-06T11:54:00.004Z,22.38
2023-02-06T11:56:27.786Z,23.45
2023-02-06T11:59:06.847Z,24.27
2023-02-06T12:01:45.091Z,24.30
2023-02-06T12:04:23.961Z,30.42
2023-02-06T12:07:14.937Z,23.75
2023-02-06T12:09:41.783Z,21.83
2023-02-06T12:12:28.581Z,27.27
2023-02-06T12:15:36.270Z,26.75
2023-02-06T12:18:02.048Z,26.52
2023-02-06T12:20:31.963Z,32.10
2023-02-06T12:23:07.456Z,25.67
2023-02-06T12:25:37.164Z,33.17
2023-02-06T12:28:27.408Z,31.55
2023-02-06T12:30:59.708Z,29.67
2023-02-06T12:33:36.266Z,27.08
2023-02-06T12:36:20.950Z,28.48
2023-02-06T12:38:57.405Z,26.23
2023-02-06T12:41:48.460Z,36.10
2023-02-06T12:44:47.019Z,30.77
2023-02-06T12:47:25.316Z,28.80
2023-02-06T12:50:00.951Z,28.98
2023-02-06T12:52:57.473Z,30.60
2023-02-06T12:55:31.976Z,28.60
2023-02-06T12:57:58.854Z,25.75
2023-02-06T13:00:45.830Z,28.63
2023-02-06T13:03:44.221Z,29.58
2023-02-06T13:06:15.433Z,28.35
2023-02-06T13:08:46.792Z,27.73
2023-02-06T13:11:24.393Z,28.20
2023-02-06T13:14:00.626Z,29.73
2023-02-06T13:16:38.934Z,25.30
2023-02-06T13:19:05.797Z,27.95
2023-02-06T13:21:34.065Z,30.33
2023-02-06T13:24:03.680Z,29.77
2023-02-06T13:26:46.336Z,27.73
2023-02-06T13:29:22.967Z,27.17
2023-02-06T13:31:49.687Z,27.58
2023-02-06T13:34:17.765Z,30.60
2023-02-06T13:36:50.195Z,28.30
2023-02-06T13:39:29.799Z,24.13
2023-02-06T13:41:56.967Z,26.50
2023-02-06T13:44:31.550Z,26.80
2023-02-06T13:47:10.435Z,24.27
2023-02-06T13:50:02.665Z,23.23
2023-02-06T13:52:54.502Z,23.35
2023-02-06T13:55:45.645Z,27.10
2023-02-06T13:58:37.168Z,27.27
2023-02-06T14:01:07.779Z,26.42
2023-02-06T14:03:34.924Z,29.33
2023-02-06T14:06:08.075Z,29.98
2023-02-06T14:09:08.889Z,24.90
2023-02-06T14:12:19.124Z,27.38
2023-02-06T14:14:51.553Z,29.05
2023-02-06T14:17:41.411Z,28.17
2023-02-06T14:20:23.663Z,29.45
2023-02-06T14:23:24.001Z,31.02
2023-02-06T14:26:13.725Z,29.20
2023-02-06T14:28:51.209Z,30.65
2023-02-06T14:31:49.254Z,27.42
2023-02-06T14:34:58.014Z,27.90
2023-02-06T14:37:43.393Z,33.97
2023-02-06T14:40:24.905Z,28.92
2023-02-06T14:42:56.168Z,29.95
2023-02-06T14:45:31.917Z,31.13
2023-02-06T14:48:04.295Z,31.35
2023-02-06T14:50:33.808Z,29.13
2023-02-06T14:53:32.813Z,31.73
2023-02-06T14:56:14.962Z,32.25
2023-02-06T14:58:46.325Z,31.52
2023-02-06T15:01:19.165Z,32.47
2023-02-06T15:03:47.639Z,31.67
2023-02-06T15:06:35.413Z,28.13
2023-02-06T15:09:02.065Z,31.88
2023-02-06T15:11:32.988Z,35.03
2023-02-06T15:14:05.404Z,32.90
2023-02-06T15:16:45.803Z,30.13
2023-02-06T15:19:18.354Z,27.02
2023-02-06T15:21:45.156Z,33.17
2023-02-06T15:24:41.027Z,29.08
2023-02-06T15:27:19.982Z,29.98
2023-02-06T15:29:49.818Z,27.92
2023-02-06T15:32:38.042Z,30.13
2023-02-06T15:35:20.657Z,31.17
2023-02-06T15:37:47.521Z,33.28
2023-02-06T15:40:22.943Z,29.05
2023-02-06T15:42:50.385Z,25.60
2023-02-06T15:45:25.595Z,27.38
2023-02-06T15:47:53.888Z,24.35
2023-02-06T15:50:27.387Z,28.75
2023-02-06T15:52:55.212Z,26.75
2023-02-06T15:55:25.900Z,22.67
2023-02-06T15:57:53.157Z,23.60
2023-02-06T16:00:26.521Z,25.33
2023-02-06T16:02:58.075Z,24.50
2023-02-06T16:05:33.752Z,23.33
2023-02-06T16:08:02.757Z,23.02
2023-02-06T16:10:33.248Z,23.67
2023-02-06T16:13:01.793Z,24.55
2023-02-06T16:15:34.308Z,23.35
2023-02-06T16:18:25.782Z,25.77
2023-02-06T16:20:52.725Z,21.95
2023-02-06T16:23:28.773Z,24.05
2023-02-06T16:26:17.214Z,27.50
2023-02-06T16:29:05.863Z,25.40
2023-02-06T16:31:35.389Z,29.17
2023-02-06T16:34:05.216Z,26.83
2023-02-06T16:36:33.345Z,30.27
2023-02-06T16:39:03.989Z,29.75
2023-02-06T16:41:37.264Z,30.42
2023-02-06T16:44:07.572Z,32.38
2023-02-06T16:46:34.327Z,29.58
2023-02-06T16:49:01.083Z,28.98
2023-02-06T16:51:29.939Z,23.45
2023-02-06T16:53:58.098Z,25.73
2023-02-06T16:56:24.834Z,29.17
2023-02-06T16:58:51.625Z,26.00
2023-02-06T17:01:26.761Z,22.98
2023-02-06T17:03:53.850Z,26.35
2023-02-06T17:06:30.442Z,24.25
2023-02-06T17:09:02.143Z,24.08
2023-02-06T17:11:29.621Z,25.95
2023-02-06T17:13:56.620Z,21.40
2023-02-06T17:16:24.840Z,23.02
2023-02-06T17:18:52.300Z,23.77
2023-02-06T17:21:22.401Z,26.83
2023-02-06T17:23:50.319Z,26.02
2023-02-06T17:26:20.541Z,28.27
2023-02-06T17:28:48.091Z,30.65
2023-02-06T17:31:15.255Z,28.95
2023-02-06T17:33:42.009Z,27.42
2023-02-06T17:36:19.334Z,24.75
2023-02-06T17:38:46.038Z,30.55
2023-02-06T17:41:12.772Z,22.02
2023-02-06T17:43:39.440Z,26.70
2023-02-06T17:46:06.674Z,24.02
2023-02-06T17:48:36.671Z,24.08
2023-02-06T17:51:05.365Z,24.67
2023-02-06T17:53:32.318Z,28.63
2023-02-06T17:56:04.573Z,28.85
2023-02-06T17:58:31.438Z,25.40
2023-02-06T18:00:58.123Z,23.83
2023-02-06T18:03:24.925Z,23.92
2023-02-06T18:05:59.442Z,24.40
2023-02-06T18:08:27.188Z,26.58
2023-02-06T18:10:53.831Z,28.40
2023-02-06T18:13:21.591Z,29.10
2023-02-06T18:15:50.341Z,28.75
2023-02-06T18:18:17.058Z,26.13
2023-02-06T18:20:44.165Z,25.48
2023-02-06T18:23:11.265Z,22.33
2023-02-06T18:25:44.541Z,24.65
2023-02-06T18:28:14.141Z,26.25
2023-02-06T18:30:41.973Z,29.40
2023-02-06T18:33:09.222Z,24.55
2023-02-06T18:35:40.576Z,23.60
2023-02-06T18:38:10.091Z,24.52
2023-02-06T18:40:41.440Z,26.67
2023-02-06T18:43:08.548Z,26.42
2023-02-06T18:45:37.690Z,24.63
2023-02-06T18:48:06.074Z,24.05
2023-02-06T18:50:38.653Z,26.13
2023-02-06T18:53:05.474Z,25.30
2023-02-06T18:55:35.041Z,24.90
2023-02-06T18:58:02.334Z,24.98
2023-02-06T19:00:29.078Z,25.10
2023-02-06T19:02:58.142Z,25.27
2023-02-06T19:05:24.992Z,24.70
2023-02-06T19:07:53.508Z,24.00
2023-02-06T19:10:21.352Z,24.92
2023-02-06T19:12:48.016Z,27.27
2023-02-06T19:15:15.349Z,22.88
2023-02-06T19:17:42.086Z,26.25
2023-02-06T19:20:10.267Z,27.40
2023-02-06T19:22:38.051Z,30.80
2023-02-06T19:25:10.058Z,28.30
2023-02-06T19:27:38.692Z,29.45
2023-02-06T19:30:07.924Z,33.08
2023-02-06T19:32:35.117Z,33.58
2023-02-06T19:35:02.560Z,34.15
2023-02-06T19:37:29.256Z,40.28
2023-02-06T19:39:56.014Z,35.10
2023-02-06T19:42:22.823Z,41.30
2023-02-06T19:44:54.911Z,41.65
2023-02-06T19:47:21.849Z,46.13
2023-02-06T19:49:52.717Z,31.42
2023-02-06T19:52:20.192Z,36.35
2023-02-06T19:54:47.973Z,30.50
2023-02-06T19:57:16.116Z,31.40
2023-02-06T19:59:42.907Z,29.58
2023-02-06T20:02:10.552Z,32.53
2023-02-06T20:04:37.928Z,30.45
2023-02-06T20:07:04.681Z,28.75
2023-02-06T20:09:31.824Z,32.58
2023-02-06T20:11:58.719Z,34.25
2023-02-06T20:14:26.900Z,28.67
2023-02-06T20:16:53.851Z,25.13
2023-02-06T20:19:27.113Z,28.58
2023-02-06T20:21:57.654Z,26.73
2023-02-06T20:24:27.056Z,25.55
2023-02-06T20:26:56.453Z,26.67
2023-02-06T20:29:24.489Z,25.02
2023-02-06T20:31:51.668Z,28.88
2023-02-06T20:34:19.105Z,27.30
2023-02-06T20:36:46.471Z,27.42
2023-02-06T20:39:13.707Z,27.75
2023-02-06T20:41:41.263Z,28.85
2023-02-06T20:44:09.690Z,28.15
2023-02-06T20:46:36.849Z,29.08
2023-02-06T20:49:06.092Z,28.40
2023-02-06T20:51:32.724Z,28.80
2023-02-06T20:54:01.951Z,27.65
2023-02-06T20:56:28.747Z,26.13
2023-02-06T20:58:56.533Z,29.83
2023-02-06T21:01:25.979Z,33.03
2023-02-06T21:03:55.832Z,33.53
2023-02-06T21:06:22.774Z,33.70
2023-02-06T21:08:50.417Z,32.75
2023-02-06T21:11:17.647Z,36.60
2023-02-06T21:13:44.437Z,40.20
2023-02-06T21:16:13.538Z,36.65
2023-02-06T21:18:42.781Z,35.30
2023-02-06T21:21:12.483Z,35.20
2023-02-06T21:23:40.856Z,31.00
2023-02-06T21:26:12.429Z,28.90
2023-02-06T21:28:39.622Z,32.10
2023-02-06T21:31:09.353Z,32.92
2023-02-06T21:33:36.613Z,31.10
2023-02-06T21:36:04.122Z,31.23
2023-02-06T21:38:30.801Z,30.67
2023-02-06T21:41:03.919Z,30.50
2023-02-06T21:43:30.775Z,29.25
2023-02-06T21:45:58.053Z,32.13
2023-02-06T21:48:24.759Z,28.17
2023-02-06T21:50:51.548Z,28.35
2023-02-06T21:53:18.305Z,30.80
2023-02-06T21:55:45.322Z,27.83
2023-02-06T21:58:15.932Z,31.02
2023-02-06T22:00:44.611Z,28.40
2023-02-06T22:03:12.232Z,30.80
2023-02-06T22:05:39.335Z,30.98
2023-02-06T22:08:06.350Z,32.95
2023-02-06T22:10:35.689Z,31.48
2023-02-06T22:13:04.730Z,34.17
2023-02-06T22:15:31.649Z,30.38
2023-02-06T22:17:58.391Z,27.45
2023-02-06T22:20:25.213Z,26.27
2023-02-06T22:22:53.730Z,24.08
2023-02-06T22:25:20.484Z,25.02
2023-02-06T22:27:47.231Z,27.00
2023-02-06T22:30:14.278Z,24.67
2023-02-06T22:32:40.868Z,22.92
2023-02-06T22:35:07.890Z,26.13
2023-02-06T22:37:34.678Z,22.23
2023-02-06T22:40:01.363Z,25.95
2023-02-06T22:42:27.990Z,25.05
2023-02-06T22:44:54.630Z,22.75
2023-02-06T22:47:21.322Z,24.23
2023-02-06T22:49:50.906Z,25.50
2023-02-06T22:52:36.501Z,25.45
2023-02-06T22:55:04.646Z,29.17
2023-02-06T22:57:33.562Z,26.50
2023-02-06T23:00:00.343Z,27.02
2023-02-06T23:02:30.126Z,27.10
2023-02-06T23:04:57.039Z,25.17
2023-02-06T23:07:23.706Z,29.35
2023-02-06T23:09:50.527Z,25.65
2023-02-06T23:12:17.156Z,29.05
2023-02-06T23:14:43.795Z,27.67
2023-02-06T23:17:10.913Z,27.70
2023-02-06T23:19:40.604Z,29.20
2023-02-06T23:22:08.084Z,28.00
2023-02-06T23:24:34.739Z,31.40
2023-02-06T23:27:01.721Z,28.02
2023-02-06T23:29:28.754Z,29.65
2023-02-06T23:31:55.794Z,26.52
2023-02-06T23:34:24.319Z,26.88
2023-02-06T23:36:52.043Z,30.90
2023-02-06T23:39:22.116Z,27.67
2023-02-06T23:41:48.763Z,33.72
2023-02-06T23:44:15.406Z,32.75
2023-02-06T23:46:42.105Z,28.48
2023-02-06T23:49:09.073Z,27.75
2023-02-06T23:51:38.000Z,29.83
2023-02-06T23:54:05.809Z,30.02
2023-02-06T23:56:33.095Z,29.42
2023-02-06T23:59:04.043Z,30.17
